JBU634 TJSJ-KBUF
Flight info
| Callsign | JBU634 |
|---|---|
| Flight time | N/A |
| Altitude | 34000 |
| Route | GLADA3 MACOR/M079F340 L455 DUPOX/M079F360 L455 SAVIK/N0457F360 DCT YAALE/N0455F370 Y495 MOUGH/N0460F360 Y495 OWENZ DCT FATON/N0453F370 DCT CCC/N0456F380 DCT IGN DCT RKA DCT GEE |
| Aircraft | A320/M-SDE3FGHIRWY/LB1 |
Departure
| Time | 2026-04-29 00:10 |
|---|---|
| Airport | Luis Munoz Marin International Airport (TJSJ) |
Arrival
| Time | N/A |
|---|---|
| Airport | Buffalo Niagara International Airport (KBUF) |
| Time | Latitude | Longitude | Altitude | Speed | Heading |
|---|---|---|---|---|---|
| 2026-04-28 23:58 | 18.43554 | -66.00699 | 17 ft | 0 kts | 0° |
| 2026-04-29 00:04 | 18.43540 | -66.00699 | 17 ft | 4 kts | 0° |
| 2026-04-29 00:04 | 18.43514 | -66.00699 | 18 ft | 2 kts | 0° |
| 2026-04-29 00:04 | 18.43491 | -66.00701 | 18 ft | 4 kts | 21° |
| 2026-04-29 00:04 | 18.43471 | -66.00716 | 18 ft | 4 kts | 66° |
| 2026-04-29 00:05 | 18.43466 | -66.00743 | 17 ft | 4 kts | 90° |
| 2026-04-29 00:05 | 18.43466 | -66.00749 | 17 ft | 0 kts | 90° |
| 2026-04-29 00:07 | 18.43466 | -66.00747 | 17 ft | 2 kts | 88° |
| 2026-04-29 00:07 | 18.43474 | -66.00753 | 17 ft | 2 kts | 283° |
| 2026-04-29 00:07 | 18.43465 | -66.00808 | 17 ft | 13 kts | 271° |
| 2026-04-29 00:08 | 18.43466 | -66.00939 | 17 ft | 20 kts | 270° |
| 2026-04-29 00:08 | 18.43466 | -66.01093 | 17 ft | 22 kts | 270° |
| 2026-04-29 00:08 | 18.43467 | -66.01253 | 17 ft | 17 kts | 270° |
| 2026-04-29 00:08 | 18.43462 | -66.01351 | 17 ft | 14 kts | 249° |
| 2026-04-29 00:09 | 18.43395 | -66.01361 | 18 ft | 8 kts | 177° |
| 2026-04-29 00:09 | 18.43354 | -66.01326 | 17 ft | 8 kts | 97° |
| 2026-04-29 00:09 | 18.43356 | -66.01265 | 17 ft | 9 kts | 89° |
| 2026-04-29 00:09 | 18.43356 | -66.01152 | 17 ft | 36 kts | 90° |
| 2026-04-29 00:10 | 18.43354 | -66.00640 | 17 ft | 101 kts | 90° |
| 2026-04-29 00:10 | 18.43353 | -65.99710 | 17 ft | 151 kts | 90° |
| 2026-04-29 00:10 | 18.43350 | -65.98484 | 226 ft | 173 kts | 90° |
| 2026-04-29 00:10 | 18.43726 | -65.97303 | 740 ft | 176 kts | 42° |
| 2026-04-29 00:11 | 18.44846 | -65.96846 | 1220 ft | 183 kts | 356° |
| 2026-04-29 00:11 | 18.46090 | -65.97336 | 1381 ft | 204 kts | 328° |
| 2026-04-29 00:11 | 18.48933 | -65.98533 | 1782 ft | 246 kts | 2° |
| 2026-04-29 00:12 | 18.50693 | -65.98327 | 2254 ft | 260 kts | 10° |
| 2026-04-29 00:12 | 18.52493 | -65.97993 | 2993 ft | 265 kts | 9° |